createdAt,value
2018-12-16T00:02:13.619Z,98926.70
2018-12-16T00:04:49.842Z,98921.39
2018-12-16T00:07:16.411Z,98918.52
2018-12-16T00:09:48.523Z,98912.89
2018-12-16T00:12:27.162Z,98903.11
2018-12-16T00:14:58.459Z,98911.58
2018-12-16T00:17:32.351Z,98908.42
2018-12-16T00:20:04.134Z,98906.40
2018-12-16T00:22:35.788Z,98904.63
2018-12-16T00:25:08.551Z,98905.27
2018-12-16T00:27:45.550Z,98901.55
2018-12-16T00:30:15.791Z,98894.28
2018-12-16T00:32:50.993Z,98880.75
2018-12-16T00:35:19.904Z,98880.89
2018-12-16T00:37:48.391Z,98888.52
2018-12-16T00:40:19.706Z,98890.45
2018-12-16T00:45:32.593Z,98869.47
2018-12-16T00:48:06.159Z,98871.17
2018-12-16T00:50:39.689Z,98869.61
2018-12-16T00:53:14.476Z,98871.56
2018-12-16T00:55:45.555Z,98861.86
2018-12-16T00:58:14.093Z,98866.61
2018-12-16T01:00:46.894Z,98860.91
2018-12-16T01:03:20.638Z,98860.55
2018-12-16T01:05:54.754Z,98863.45
2018-12-16T01:08:26.635Z,98859.76
2018-12-16T01:10:58.231Z,98861.40
2018-12-16T01:13:33.079Z,98862.28
2018-12-16T01:16:01.813Z,98860.14
2018-12-16T01:18:36.611Z,98864.23
2018-12-16T01:21:05.337Z,98868.30
2018-12-16T01:23:35.796Z,98870.39
2018-12-16T01:26:10.310Z,98865.46
2018-12-16T01:28:38.736Z,98866.92
2018-12-16T01:31:14.177Z,98860.75
2018-12-16T01:33:47.419Z,98864.93
2018-12-16T01:36:19.394Z,98860.16
2018-12-16T01:38:48.289Z,98859.38
2018-12-16T01:41:24.144Z,98859.29
2018-12-16T01:43:53.768Z,98852.95
2018-12-16T01:46:22.328Z,98849.72
2018-12-16T01:48:51.357Z,98846.20
2018-12-16T01:51:23.182Z,98840.34
2018-12-16T01:53:51.908Z,98827.00
2018-12-16T01:56:22.359Z,98814.64
2018-12-16T01:58:51.000Z,98803.86
2018-12-16T02:01:23.168Z,98805.76
2018-12-16T02:03:53.824Z,98788.81
2018-12-16T02:06:22.301Z,98779.56
2018-12-16T02:08:51.138Z,98776.63
2018-12-16T02:11:19.674Z,98770.48
2018-12-16T02:13:52.821Z,98766.02
2018-12-16T02:16:21.392Z,98758.91
2018-12-16T02:18:49.797Z,98751.11
2018-12-16T02:21:18.290Z,98750.59
2018-12-16T02:23:50.094Z,98760.30
2018-12-16T02:26:18.549Z,98755.19
2018-12-16T02:28:50.054Z,98761.47
2018-12-16T02:31:18.937Z,98760.23
2018-12-16T02:33:50.785Z,98760.82
2018-12-16T02:36:19.351Z,98758.67
2018-12-16T02:38:52.943Z,98758.74
2018-12-16T02:41:21.553Z,98760.73
2018-12-16T02:43:50.441Z,98760.13
2018-12-16T02:46:20.781Z,98757.36
2018-12-16T02:48:49.345Z,98764.76
2018-12-16T02:51:18.033Z,98763.61
2018-12-16T02:53:46.670Z,98761.35
2018-12-16T02:56:16.761Z,98756.43
2018-12-16T02:58:45.715Z,98742.34
2018-12-16T03:01:14.254Z,98732.64
2018-12-16T03:03:49.261Z,98726.63
2018-12-16T03:06:17.976Z,98733.06
2018-12-16T03:08:49.685Z,98733.25
2018-12-16T03:11:22.175Z,98725.70
2018-12-16T03:13:55.187Z,98714.03
2018-12-16T03:16:24.063Z,98704.94
2018-12-16T03:18:55.858Z,98698.95
2018-12-16T03:21:24.481Z,98705.98
2018-12-16T03:23:54.176Z,98695.40
2018-12-16T03:26:26.449Z,98698.87
2018-12-16T03:28:54.876Z,98703.50
2018-12-16T03:31:23.438Z,98696.49
2018-12-16T03:33:51.937Z,98687.93
2018-12-16T03:36:20.364Z,98677.60
2018-12-16T03:38:50.806Z,98670.13
2018-12-16T03:41:23.258Z,98669.75
2018-12-16T03:43:55.141Z,98674.52
2018-12-16T03:46:25.835Z,98671.76
2018-12-16T03:48:54.365Z,98671.77
2018-12-16T03:51:26.991Z,98670.13
2018-12-16T03:53:56.698Z,98659.98
2018-12-16T03:56:28.333Z,98656.80
2018-12-16T03:59:08.133Z,98644.94
2018-12-16T04:01:41.293Z,98641.86
2018-12-16T04:04:09.895Z,98644.72
2018-12-16T04:06:39.895Z,98636.79
2018-12-16T04:09:08.768Z,98626.69
2018-12-16T04:11:40.906Z,98622.46
2018-12-16T04:14:09.296Z,98623.23
2018-12-16T04:16:39.504Z,98609.69
2018-12-16T04:19:07.976Z,98611.14
2018-12-16T04:21:41.934Z,98601.97
2018-12-16T04:24:18.553Z,98597.67
2018-12-16T04:26:55.382Z,98595.20
2018-12-16T04:29:34.056Z,98581.45
2018-12-16T04:32:02.729Z,98574.70
2018-12-16T04:34:35.578Z,98564.47
2018-12-16T04:37:10.439Z,98561.00
2018-12-16T04:39:43.096Z,98560.53
2018-12-16T04:42:22.447Z,98562.16
2018-12-16T04:44:51.598Z,98546.28
2018-12-16T04:47:20.170Z,98551.98
2018-12-16T04:49:53.643Z,98545.44
2018-12-16T04:52:27.134Z,98545.09
2018-12-16T04:55:01.755Z,98544.33
2018-12-16T04:57:32.162Z,98539.75
2018-12-16T05:00:02.617Z,98528.03
2018-12-16T05:02:36.813Z,98519.83
2018-12-16T05:05:05.625Z,98512.05
2018-12-16T05:07:39.844Z,98518.44
2018-12-16T05:13:06.545Z,98517.95
2018-12-16T05:15:35.150Z,98511.35
2018-12-16T05:18:06.099Z,98509.97
2018-12-16T05:20:37.142Z,98506.08
2018-12-16T05:23:14.798Z,98507.42
2018-12-16T05:25:47.888Z,98501.19
2018-12-16T05:28:22.849Z,98505.19
2018-12-16T05:30:57.113Z,98502.54
2018-12-16T05:33:31.850Z,98488.59
2018-12-16T05:36:07.930Z,98484.98
2018-12-16T05:38:41.286Z,98484.52
2018-12-16T05:41:14.895Z,98491.84
2018-12-16T05:43:43.349Z,98488.75
2018-12-16T05:46:17.681Z,98496.23
2018-12-16T05:48:47.471Z,98504.70
2018-12-16T05:51:19.426Z,98510.86
2018-12-16T05:53:54.250Z,98512.91
2018-12-16T05:56:23.322Z,98513.59
2018-12-16T05:58:53.496Z,98494.69
2018-12-16T06:01:28.689Z,98496.15
2018-12-16T06:04:05.273Z,98491.76
2018-12-16T06:06:40.615Z,98495.14
2018-12-16T06:11:57.621Z,98495.80
2018-12-16T06:14:26.248Z,98492.99
2018-12-16T06:16:54.958Z,98491.27
2018-12-16T06:19:23.767Z,98497.89
2018-12-16T06:21:52.372Z,98497.19
2018-12-16T06:24:20.865Z,98492.87
2018-12-16T06:26:49.446Z,98495.77
2018-12-16T06:29:17.915Z,98501.57
2018-12-16T06:31:46.439Z,98487.75
2018-12-16T06:34:14.963Z,98478.84
2018-12-16T06:36:43.431Z,98473.99
2018-12-16T06:39:11.970Z,98473.38
2018-12-16T06:41:40.436Z,98476.15
2018-12-16T06:44:08.981Z,98472.22
2018-12-16T06:46:37.477Z,98476.20
2018-12-16T06:49:05.982Z,98467.91
2018-12-16T06:51:34.807Z,98466.65
2018-12-16T06:54:03.322Z,98466.80
2018-12-16T06:56:31.834Z,98468.50
2018-12-16T06:59:00.281Z,98463.03
2018-12-16T07:01:28.787Z,98463.90
2018-12-16T07:03:57.279Z,98456.41
2018-12-16T07:06:26.929Z,98449.31
2018-12-16T07:08:55.409Z,98452.79
2018-12-16T07:11:23.994Z,98457.71
2018-12-16T07:13:52.558Z,98456.61
2018-12-16T07:16:21.415Z,98456.48
2018-12-16T07:18:49.994Z,98453.78
2018-12-16T07:21:18.513Z,98444.23
2018-12-16T07:23:46.944Z,98460.05
2018-12-16T07:26:15.456Z,98465.11
2018-12-16T07:28:43.993Z,98471.19
2018-12-16T07:31:12.559Z,98463.90
2018-12-16T07:33:41.194Z,98460.69
2018-12-16T07:36:12.771Z,98464.27
2018-12-16T07:38:41.421Z,98456.88
2018-12-16T07:41:10.115Z,98454.05
2018-12-16T07:43:38.850Z,98458.41
2018-12-16T07:46:07.419Z,98450.47
2018-12-16T07:48:36.242Z,98454.55
2018-12-16T07:51:04.989Z,98449.76
2018-12-16T07:53:33.422Z,98440.78
2018-12-16T07:56:01.981Z,98430.86
2018-12-16T07:58:30.709Z,98433.98
2018-12-16T08:00:59.382Z,98439.56
2018-12-16T08:03:28.086Z,98433.08
2018-12-16T08:05:57.060Z,98427.68
2018-12-16T08:08:25.748Z,98427.85
2018-12-16T08:10:54.459Z,98438.77
2018-12-16T08:13:22.994Z,98436.61
2018-12-16T08:15:51.581Z,98448.17
2018-12-16T08:18:20.155Z,98460.80
2018-12-16T08:20:48.774Z,98462.31
2018-12-16T08:23:17.240Z,98468.73
2018-12-16T08:25:45.830Z,98474.73
2018-12-16T08:28:14.379Z,98474.92
2018-12-16T08:30:43.169Z,98479.90
2018-12-16T08:33:12.330Z,98481.67
2018-12-16T08:35:40.927Z,98478.61
2018-12-16T08:38:09.476Z,98476.37
2018-12-16T08:40:38.250Z,98467.52
2018-12-16T08:43:06.888Z,98465.66
2018-12-16T08:45:35.486Z,98459.58
2018-12-16T08:48:04.163Z,98459.98
2018-12-16T08:50:32.847Z,98461.05
2018-12-16T08:53:01.305Z,98472.08
2018-12-16T08:55:29.944Z,98464.76
2018-12-16T08:57:58.507Z,98462.42
2018-12-16T09:00:27.385Z,98469.21
2018-12-16T09:02:55.999Z,98471.08
2018-12-16T09:05:24.521Z,98481.24
2018-12-16T09:07:53.274Z,98476.08
2018-12-16T09:10:21.773Z,98477.31
2018-12-16T09:12:50.438Z,98464.52
2018-12-16T09:24:23.264Z,98435.38
2018-12-16T09:27:13.504Z,98432.55
2018-12-16T09:32:51.102Z,98458.49
2018-12-16T09:35:19.407Z,98455.19
2018-12-16T09:37:47.940Z,98460.51
2018-12-16T09:40:16.301Z,98462.13
2018-12-16T09:42:44.650Z,98464.76
2018-12-16T09:45:13.073Z,98458.03
2018-12-16T09:47:41.756Z,98455.30
2018-12-16T09:50:10.330Z,98441.34
2018-12-16T09:52:38.703Z,98443.68
2018-12-16T09:55:07.697Z,98449.91
2018-12-16T09:57:36.065Z,98448.08
2018-12-16T10:00:05.097Z,98445.08
2018-12-16T10:02:33.643Z,98438.83
2018-12-16T10:05:02.156Z,98433.45
2018-12-16T10:07:30.456Z,98429.66
2018-12-16T10:09:58.817Z,98428.59
2018-12-16T10:12:27.341Z,98429.48
2018-12-16T10:14:55.762Z,98424.74
2018-12-16T10:17:24.078Z,98415.53
2018-12-16T10:19:52.721Z,98412.48
2018-12-16T10:22:21.211Z,98416.30
2018-12-16T10:24:51.508Z,98415.10
2018-12-16T10:27:20.291Z,98416.30
2018-12-16T10:29:48.803Z,98410.41
2018-12-16T10:32:17.117Z,98406.61
2018-12-16T10:34:45.529Z,98401.11
2018-12-16T10:37:13.899Z,98397.02
2018-12-16T10:39:43.455Z,98389.02
2018-12-16T10:42:11.779Z,98398.95
2018-12-16T10:44:40.182Z,98393.97
2018-12-16T10:47:08.461Z,98386.70
2018-12-16T10:49:36.893Z,98386.35
2018-12-16T10:52:05.381Z,98380.77
2018-12-16T10:54:33.739Z,98379.42
2018-12-16T10:57:02.714Z,98372.35
2018-12-16T10:59:31.749Z,98377.64
2018-12-16T11:02:00.049Z,98378.83
2018-12-16T11:04:28.410Z,98374.85
2018-12-16T11:06:56.708Z,98366.14
2018-12-16T11:09:25.180Z,98371.77
2018-12-16T11:11:53.510Z,98369.95
2018-12-16T11:14:21.844Z,98370.30
2018-12-16T11:16:50.300Z,98368.94
2018-12-16T11:19:18.733Z,98371.26
2018-12-16T11:21:47.123Z,98365.47
2018-12-16T11:24:15.532Z,98367.14
2018-12-16T11:26:43.967Z,98364.66
2018-12-16T11:29:12.370Z,98368.05
2018-12-16T11:31:40.709Z,98368.84
2018-12-16T11:34:09.377Z,98364.82
2018-12-16T11:36:37.705Z,98368.22
2018-12-16T11:39:07.650Z,98357.64
2018-12-16T11:41:36.087Z,98356.22
2018-12-16T11:44:04.512Z,98343.41
2018-12-16T11:46:32.885Z,98339.63
2018-12-16T11:49:01.265Z,98341.09
2018-12-16T11:51:29.707Z,98335.39
2018-12-16T11:53:58.034Z,98326.23
2018-12-16T11:56:26.400Z,98325.88
2018-12-16T11:58:54.968Z,98328.08
2018-12-16T12:01:23.337Z,98318.46
2018-12-16T12:03:51.732Z,98315.47
2018-12-16T12:06:20.053Z,98320.92
2018-12-16T12:08:48.379Z,98316.11
2018-12-16T12:11:16.734Z,98323.56
2018-12-16T12:13:45.265Z,98318.26
2018-12-16T12:16:13.692Z,98318.84
2018-12-16T12:18:42.106Z,98322.94
2018-12-16T12:21:10.548Z,98325.70
2018-12-16T12:23:38.885Z,98328.39
2018-12-16T12:26:07.299Z,98321.48
2018-12-16T12:28:35.947Z,98319.68
2018-12-16T12:31:04.733Z,98319.81
2018-12-16T12:33:33.052Z,98318.26
2018-12-16T12:36:01.431Z,98311.07
2018-12-16T12:38:29.980Z,98312.25
2018-12-16T12:40:58.495Z,98311.02
2018-12-16T12:43:26.845Z,98315.01
2018-12-16T12:45:55.353Z,98311.96
2018-12-16T12:48:23.733Z,98317.83
2018-12-16T12:50:52.120Z,98320.31
2018-12-16T12:53:20.494Z,98318.00
2018-12-16T12:55:48.990Z,98315.21
2018-12-16T12:58:17.304Z,98311.11
2018-12-16T13:00:45.645Z,98306.55
2018-12-16T13:03:13.968Z,98305.95
2018-12-16T13:05:42.292Z,98310.95
2018-12-16T13:08:10.629Z,98311.36
2018-12-16T13:10:38.960Z,98302.39
2018-12-16T13:13:07.337Z,98305.41
2018-12-16T13:15:36.199Z,98304.29
2018-12-16T13:18:04.649Z,98304.69
2018-12-16T13:20:33.052Z,98304.08
2018-12-16T13:23:01.505Z,98300.65
2018-12-16T13:25:41.315Z,98309.56
2018-12-16T13:28:10.118Z,98314.37
2018-12-16T13:30:38.669Z,98311.23
2018-12-16T13:33:07.096Z,98311.31
2018-12-16T13:35:35.415Z,98310.55
2018-12-16T13:38:03.706Z,98311.77
2018-12-16T13:40:32.158Z,98313.40
2018-12-16T13:43:00.525Z,98310.91
2018-12-16T13:45:28.933Z,98312.84
2018-12-16T13:47:57.292Z,98312.93
2018-12-16T13:50:25.637Z,98317.96
2018-12-16T13:52:54.041Z,98309.72
2018-12-16T13:55:23.161Z,98308.22
2018-12-16T13:57:51.944Z,98304.94
2018-12-16T14:00:20.276Z,98306.87
2018-12-16T14:02:49.957Z,98310.30
2018-12-16T14:05:18.511Z,98315.89
2018-12-16T14:07:46.826Z,98304.02
2018-12-16T14:10:15.142Z,98310.39
2018-12-16T14:12:43.497Z,98309.34
2018-12-16T14:15:11.916Z,98303.72
2018-12-16T14:17:40.215Z,98313.93
2018-12-16T14:20:10.088Z,98307.58
2018-12-16T14:22:38.556Z,98316.09
2018-12-16T14:25:07.259Z,98317.98
2018-12-16T14:27:35.593Z,98315.05
2018-12-16T14:30:05.144Z,98315.16
2018-12-16T14:32:33.442Z,98312.72
2018-12-16T14:35:02.725Z,98314.88
2018-12-16T14:37:31.273Z,98313.63
2018-12-16T14:39:59.683Z,98311.81
2018-12-16T14:42:28.021Z,98307.55
2018-12-16T14:44:56.387Z,98315.34
2018-12-16T14:47:24.727Z,98313.67
2018-12-16T14:49:53.065Z,98313.73
2018-12-16T14:52:21.471Z,98316.30
2018-12-16T14:54:49.861Z,98317.19
2018-12-16T14:57:18.281Z,98315.63
2018-12-16T14:59:46.776Z,98311.53
2018-12-16T15:02:15.099Z,98318.05
2018-12-16T15:04:43.645Z,98323.55
2018-12-16T15:07:12.104Z,98321.05
2018-12-16T15:09:40.497Z,98319.52
2018-12-16T15:12:08.888Z,98321.68
2018-12-16T15:14:37.633Z,98328.98
2018-12-16T15:17:05.948Z,98325.55
2018-12-16T15:19:34.420Z,98334.11
2018-12-16T15:22:02.788Z,98334.57
2018-12-16T15:24:31.132Z,98336.22
2018-12-16T15:26:59.603Z,98339.69
2018-12-16T15:29:27.887Z,98337.74
2018-12-16T15:31:56.308Z,98337.99
2018-12-16T15:34:24.706Z,98330.38
2018-12-16T15:36:53.158Z,98335.42
2018-12-16T15:39:21.607Z,98344.70
2018-12-16T15:41:50.127Z,98349.10
2018-12-16T15:44:18.416Z,98347.42
2018-12-16T15:46:46.871Z,98342.02
2018-12-16T15:49:15.159Z,98346.95
2018-12-16T15:51:43.464Z,98341.79
2018-12-16T15:54:11.821Z,98351.22
2018-12-16T15:56:40.187Z,98347.08
2018-12-16T15:59:08.524Z,98348.59
2018-12-16T16:01:36.917Z,98352.87
2018-12-16T16:04:05.233Z,98355.61
2018-12-16T16:06:34.389Z,98349.27
2018-12-16T16:09:03.013Z,98345.02
2018-12-16T16:11:31.489Z,98358.62
2018-12-16T16:14:00.169Z,98362.38
2018-12-16T16:16:28.485Z,98360.91
2018-12-16T16:18:56.917Z,98357.65
2018-12-16T16:21:25.238Z,98359.17
2018-12-16T16:23:53.567Z,98360.35
2018-12-16T16:26:21.941Z,98369.48
2018-12-16T16:28:50.280Z,98362.55
2018-12-16T16:31:18.616Z,98362.63
2018-12-16T16:33:46.971Z,98361.83
2018-12-16T16:36:15.303Z,98365.22
2018-12-16T16:38:43.713Z,98370.33
2018-12-16T16:41:12.026Z,98372.95
2018-12-16T16:43:40.363Z,98377.59
2018-12-16T16:46:08.708Z,98377.13
2018-12-16T16:48:37.146Z,98378.33
2018-12-16T16:51:05.461Z,98376.80
2018-12-16T16:53:33.736Z,98375.78
2018-12-16T16:56:02.050Z,98373.97
2018-12-16T16:58:30.530Z,98380.94
2018-12-16T17:00:58.896Z,98379.42
2018-12-16T17:03:27.234Z,98378.11
2018-12-16T17:05:55.678Z,98380.09
2018-12-16T17:08:24.025Z,98378.53
2018-12-16T17:10:52.529Z,98389.06
2018-12-16T17:13:20.835Z,98385.13
2018-12-16T17:15:49.197Z,98394.30
2018-12-16T17:18:17.542Z,98403.48
2018-12-16T17:20:46.119Z,98401.32
2018-12-16T17:23:14.531Z,98394.25
2018-12-16T17:25:48.196Z,98399.83
2018-12-16T17:28:13.282Z,98406.02
2018-12-16T17:30:41.600Z,98399.57
2018-12-16T17:33:09.901Z,98410.92
2018-12-16T17:35:38.241Z,98405.92
2018-12-16T17:38:07.693Z,98403.84
2018-12-16T17:40:36.219Z,98404.48
2018-12-16T17:43:04.720Z,98410.92
2018-12-16T17:45:33.350Z,98407.75
2018-12-16T17:48:01.773Z,98415.58
2018-12-16T17:50:30.237Z,98419.16
2018-12-16T17:52:59.339Z,98420.77
2018-12-16T17:55:27.753Z,98424.92
2018-12-16T17:57:56.152Z,98430.33
2018-12-16T18:00:24.694Z,98428.94
2018-12-16T18:02:53.121Z,98431.72
2018-12-16T18:05:21.721Z,98432.70
2018-12-16T18:07:50.048Z,98432.60
2018-12-16T18:10:18.417Z,98435.74
2018-12-16T18:12:46.767Z,98437.52
2018-12-16T18:15:15.295Z,98438.83
2018-12-16T18:17:43.753Z,98445.94
2018-12-16T18:20:12.338Z,98442.17
2018-12-16T18:22:40.749Z,98443.19
2018-12-16T18:25:09.154Z,98449.53
2018-12-16T18:27:37.527Z,98454.44
2018-12-16T18:30:07.504Z,98452.80
2018-12-16T18:32:35.852Z,98456.13
2018-12-16T18:35:04.715Z,98462.28
2018-12-16T18:37:33.132Z,98464.73
2018-12-16T18:40:01.633Z,98465.28
2018-12-16T18:42:30.039Z,98468.89
2018-12-16T18:44:58.483Z,98472.42
2018-12-16T18:47:26.916Z,98470.86
2018-12-16T18:49:55.298Z,98468.05
2018-12-16T18:52:24.258Z,98471.27
2018-12-16T18:54:52.572Z,98472.69
2018-12-16T18:57:20.857Z,98470.53
2018-12-16T18:59:49.214Z,98471.45
2018-12-16T19:02:17.609Z,98479.71
2018-12-16T19:04:45.969Z,98483.70
2018-12-16T19:07:14.288Z,98480.38
2018-12-16T19:09:42.732Z,98473.97
2018-12-16T19:12:11.102Z,98477.39
2018-12-16T19:14:39.932Z,98474.30
2018-12-16T19:17:08.385Z,98469.91
2018-12-16T19:19:36.805Z,98462.81
2018-12-16T19:22:05.348Z,98469.36
2018-12-16T19:24:33.715Z,98469.72
2018-12-16T19:27:02.367Z,98475.26
2018-12-16T19:29:30.716Z,98482.69
2018-12-16T19:32:00.156Z,98487.47
2018-12-16T19:34:28.916Z,98484.35
2018-12-16T19:36:57.434Z,98482.14
2018-12-16T19:39:25.898Z,98476.98
2018-12-16T19:41:54.333Z,98475.09
2018-12-16T19:44:24.290Z,98474.66
2018-12-16T19:46:53.359Z,98477.06
2018-12-16T19:49:22.360Z,98477.33
2018-12-16T19:52:01.794Z,98481.73
2018-12-16T19:54:31.777Z,98490.31
2018-12-16T19:57:05.091Z,98491.53
2018-12-16T19:59:30.785Z,98494.88
2018-12-16T20:02:00.977Z,98487.52
2018-12-16T20:04:34.644Z,98491.08
2018-12-16T20:07:03.133Z,98489.52
2018-12-16T20:09:31.523Z,98491.45
2018-12-16T20:11:59.856Z,98491.67
2018-12-16T20:14:28.186Z,98495.17
2018-12-16T20:16:56.589Z,98498.78
2018-12-16T20:19:25.010Z,98492.05
2018-12-16T20:21:54.651Z,98497.08
2018-12-16T20:24:24.207Z,98497.71
2018-12-16T20:26:53.845Z,98495.01
2018-12-16T20:29:23.884Z,98494.55
2018-12-16T20:31:52.210Z,98499.41
2018-12-16T20:34:21.300Z,98502.48
2018-12-16T20:36:50.460Z,98506.05
2018-12-16T20:39:18.819Z,98510.27
2018-12-16T20:41:47.141Z,98517.52
2018-12-16T20:44:17.512Z,98519.84
2018-12-16T20:46:46.029Z,98509.44
2018-12-16T20:49:14.375Z,98507.19
2018-12-16T20:51:42.749Z,98508.75
2018-12-16T20:54:12.643Z,98504.95
2018-12-16T20:56:41.028Z,98512.27
2018-12-16T20:59:09.388Z,98508.97
2018-12-16T21:01:37.878Z,98518.75
2018-12-16T21:04:08.514Z,98521.84
2018-12-16T21:06:36.877Z,98517.81
2018-12-16T21:09:07.633Z,98522.60
2018-12-16T21:11:42.513Z,98525.19
2018-12-16T21:14:16.281Z,98535.30
2018-12-16T21:16:50.103Z,98528.53
2018-12-16T21:19:18.856Z,98524.94
2018-12-16T21:21:47.235Z,98532.30
2018-12-16T21:24:17.111Z,98527.43
2018-12-16T21:26:45.475Z,98532.76
2018-12-16T21:29:13.886Z,98536.40
2018-12-16T21:31:43.525Z,98536.61
2018-12-16T21:34:12.313Z,98545.55
2018-12-16T21:36:41.143Z,98546.94
2018-12-16T21:39:12.935Z,98553.28
2018-12-16T21:41:44.608Z,98558.59
2018-12-16T21:44:13.032Z,98564.22
2018-12-16T21:46:41.543Z,98562.82
2018-12-16T21:49:10.997Z,98559.59
2018-12-16T21:51:40.613Z,98561.29
2018-12-16T21:54:08.970Z,98557.61
2018-12-16T21:56:37.303Z,98560.06
2018-12-16T21:59:05.659Z,98567.85
2018-12-16T22:01:34.053Z,98565.74
2018-12-16T22:04:02.647Z,98568.53
2018-12-16T22:06:31.030Z,98567.60
2018-12-16T22:08:59.340Z,98578.14
2018-12-16T22:11:27.759Z,98581.61
2018-12-16T22:13:56.936Z,98581.14
2018-12-16T22:16:25.265Z,98588.38
2018-12-16T22:18:53.708Z,98592.70
2018-12-16T22:21:22.034Z,98585.55
2018-12-16T22:23:50.462Z,98587.79
2018-12-16T22:26:19.045Z,98593.09
2018-12-16T22:28:47.450Z,98603.42
2018-12-16T22:31:15.756Z,98605.66
2018-12-16T22:33:44.120Z,98606.80
2018-12-16T22:36:12.513Z,98610.62
2018-12-16T22:38:40.848Z,98611.63
2018-12-16T22:41:09.186Z,98609.56
2018-12-16T22:43:37.888Z,98609.86
2018-12-16T22:46:06.274Z,98616.07
2018-12-16T22:48:34.816Z,98610.20
2018-12-16T22:51:03.228Z,98610.41
2018-12-16T22:53:31.584Z,98621.54
2018-12-16T22:55:59.928Z,98617.81
2018-12-16T22:58:28.275Z,98624.93
2018-12-16T23:01:02.232Z,98626.24
2018-12-16T23:03:30.609Z,98627.26
2018-12-16T23:06:01.105Z,98620.27
2018-12-16T23:08:29.572Z,98613.50
2018-12-16T23:10:58.157Z,98621.54
2018-12-16T23:13:26.540Z,98617.27
2018-12-16T23:15:54.943Z,98619.89
2018-12-16T23:18:23.266Z,98618.66
2018-12-16T23:20:51.669Z,98622.52
2018-12-16T23:23:20.091Z,98626.63
2018-12-16T23:25:48.449Z,98630.78
2018-12-16T23:28:17.080Z,98633.02
2018-12-16T23:30:45.393Z,98632.64
2018-12-16T23:33:13.781Z,98632.56
2018-12-16T23:35:42.165Z,98639.59
2018-12-16T23:38:10.549Z,98646.31
2018-12-16T23:40:38.979Z,98648.86
2018-12-16T23:43:07.407Z,98644.70
2018-12-16T23:45:35.753Z,98644.75
2018-12-16T23:48:04.156Z,98641.50
2018-12-16T23:50:32.502Z,98645.35
2018-12-16T23:53:00.821Z,98645.73
2018-12-16T23:55:29.116Z,98646.58
2018-12-16T23:58:01.018Z,98636.16
